DXXX/LFW METAR and TAF weather

Enter ICAO airport designator
Station Type Date Time Source
DXXX METAR 2020/01/18 03:00 UTC NOAA

DXXX 180300Z 27003KT 9999 FEW012 27/26 Q1012 NOSIG


Station Type Date Time Source
DXXX Decoded METAR 2020/01/18 03:00 UTC NOAA

Lome, Togo (DXXX) 06-10N 001-15E 25M
Jan 17, 2020 - 10:00 PM EST / 2020.01.18 0300 UTC
Wind: from the W (270 degrees) at 3 MPH (3 KT):0
Visibility: greater than 7 mile(s):0
Sky conditions: mostly clear
Temperature: 80 F (27 C)
Dew Point: 78 F (26 C)
Relative Humidity: 94%
Pressure (altimeter): 29.88 in. Hg (1012 hPa)
ob: DXXX 180300Z 27003KT 9999 FEW012 27/26 Q1012 NOSIG
cycle: 3

Station Type Date Time Source
DXXX TAF 2020/01/17 18:39 UTC NOAA

TAF DXXX 171700Z 1718/1824 20010KT 9999 FEW012
BECMG 1800/1802 26005KT PROB40
TEMPO 1805/1809 3500 BR
BECMG 1810/1812 20010KT

Example: see airport list